Saturday, September 22, 2018, 9:02 AM EDT
Back to Local

KCON, Concord, Concord Municipal Airport

Location: Concord, NH, United States Lat: 43.195
Local Time: 9:02 AM EDT (13:02 GMT) Lon: -71.501
Time Zone: US/Eastern Elev: 344 ft

Show me the last for .
Show Decoded

2018-09-22 08:51 METAR KCON 221251Z AUTO 32017G28KT 10SM SCT047 18/08 A3002 RMK AO2 PK WND
                 33028/1247 SLP165 T01830083 =
2018-09-22 07:51 METAR KCON 221151Z AUTO 30016G25KT 10SM CLR 19/10 A2995 RMK AO2 SLP141 T01890100
                 10217 20189 51046 =
2018-09-22 06:51 METAR KCON 221051Z AUTO 33012G24KT 10SM CLR 20/11 A2992 RMK AO2 PK WND
                 29028/1016 PRESRR SLP130 T02000106 =
2018-09-22 05:51 METAR KCON 220951Z AUTO 31005KT 10SM FEW033 FEW042 SCT048 21/18 A2986 RMK AO2
                 PRESRR SLP110 T02060178 =
2018-09-22 04:51 METAR KCON 220851Z AUTO 23006KT 10SM CLR 21/18 A2981 RMK AO2 SLP094 T02110183
                 53001 =
2018-09-22 03:51 METAR KCON 220751Z AUTO 24006KT 10SM FEW055 BKN075 22/18 A2979 RMK AO2 SLP087
                 T02170183 =
2018-09-22 03:10 METAR KCON 220710Z AUTO 24006KT 10SM SCT022 SCT060 OVC110 21/18 A2979 RMK AO2
                 T02110183 =
2018-09-22 02:51 METAR KCON 220651Z AUTO 24006KT 10SM BKN023 OVC100 21/18 A2980 RMK AO2 SLP091
                 T02110183 =
2018-09-22 01:51 METAR KCON 220551Z AUTO 21014G23KT 10SM OVC018 21/18 A2981 RMK AO2 RAB14E31
                 SLP093 P0000 60000 T02110183 10211 20178 56024 =
2018-09-22 00:51 METAR KCON 220451Z AUTO 20011KT 10SM OVC017 21/18 A2982 RMK AO2 SLP096 T02110178
                 402110139 =
2018-09-21 23:51 METAR KCON 220351Z AUTO 16006KT 10SM OVC017 19/17 A2985 RMK AO2 SLP108 T01890167
                 =
2018-09-21 22:51 METAR KCON 220251Z AUTO 18010KT 10SM OVC020 19/16 A2988 RMK AO2 SLP118 T01890156
                 58018 =
2018-09-21 21:51 METAR KCON 220151Z AUTO 18009KT 10SM OVC021 18/15 A2991 RMK AO2 SLP128 T01830150
                 =
2018-09-21 20:51 METAR KCON 220051Z AUTO 18009KT 10SM OVC022 18/15 A2992 RMK AO2 SLP132 T01830150
                 =
2018-09-21 19:51 METAR KCON 212351Z AUTO 18011KT 10SM OVC024 18/14 A2994 RMK AO2 SLP137 T01830144
                 10183 20178 56032 =
2018-09-21 18:51 METAR KCON 212251Z AUTO 17007KT 10SM OVC025 18/14 A2996 RMK AO2 SLP147 T01780144
                 =
2018-09-21 17:51 METAR KCON 212151Z AUTO 17008KT 10SM OVC026 18/14 A3000 RMK AO2 SLP160 T01830144
                 =
2018-09-21 16:51 METAR KCON 212051Z AUTO 18010KT 10SM OVC028 18/14 A3003 RMK AO2 SLP170 T01830144
                 58034 =
2018-09-21 15:51 METAR KCON 211951Z AUTO 17009KT 10SM OVC028 18/14 A3007 RMK AO2 SLP182 T01830139
                 =
2018-09-21 14:58 METAR KCON 211858Z AUTO 18009KT 10SM OVC029 18/13 A3010 =
2018-09-21 14:51 METAR KCON 211851Z AUTO 17008KT 10SM OVC030 18/13 A3010 RMK AO2 SLP193 T01830128
                 =
2018-09-21 13:51 METAR KCON 211751Z AUTO 18007KT 10SM OVC031 18/12 A3013 RMK AO2 SLP204 T01830122
                 10183 20144 58032 =
2018-09-21 12:51 METAR KCON 211651Z AUTO 17008KT 10SM OVC033 17/12 A3017 RMK AO2 SLP218 T01720122
                 =
2018-09-21 11:51 METAR KCON 211551Z AUTO 15008KT 10SM OVC034 17/12 A3020 RMK AO2 SLP227 T01670117
                 =
2018-09-21 10:51 METAR KCON 211451Z AUTO 15008KT 10SM OVC032 16/12 A3023 RMK AO2 SLP237 T01610117
                 58022 =
2018-09-21 09:51 METAR KCON 211351Z AUTO 17010KT 10SM OVC037 16/12 A3026 RMK AO2 SLP249 T01560117
                 =

Support USWX by starting your Amazon purchase here.